Time;durP1;ratioP1;P1;durP2;ratioP2;P2;SDS_P1;SDS_P2;PMS_P1;PMS_P2;Temp;Humidity;BMP_temperature;BMP_pressure;BME280_temperature;BME280_humidity;BME280_pressure;Samples;Min_cycle;Max_cycle;Signal;HPM_P1;HPM_P2
2022/06/18 00:01:09;;;;;;;16.50;12.50;;;;;;;13.10;71.87;100386.30;213715;1277;141398;-65
2022/06/18 00:06:15;;;;;;;20.20;13.10;;;;;;;13.15;72.23;100382.70;213531;1276;141490;-66
2022/06/18 00:16:44;;;;;;;13.40;9.90;;;;;;;12.91;71.98;100368.63;213485;1274;142756;-65
2022/06/18 00:21:50;;;;;;;13.00;11.50;;;;;;;12.71;72.19;100368.62;213568;1277;141042;-64
2022/06/18 00:26:55;;;;;;;13.90;9.90;;;;;;;12.60;72.64;100366.90;213457;1276;141836;-66
2022/06/18 00:32:00;;;;;;;15.10;9.20;;;;;;;12.57;72.98;100357.26;213422;1277;250579;-63
2022/06/18 00:37:06;;;;;;;11.60;9.10;;;;;;;12.52;73.02;100362.50;213437;1276;141277;-65
2022/06/18 00:42:24;;;;;;;11.00;9.20;;;;;;;12.55;73.28;100366.26;213414;1277;159320;-65
2022/06/18 00:47:41;;;;;;;11.70;9.10;;;;;;;12.54;73.37;100362.54;214973;1276;140592;-66
2022/06/18 00:53:00;;;;;;;20.20;9.60;;;;;;;12.48;73.50;100363.07;215957;1276;140417;-66
2022/06/18 00:58:08;;;;;;;12.10;10.50;;;;;;;12.52;73.52;100362.30;216122;1276;141057;-66
2022/06/18 01:03:46;;;;;;;11.60;10.10;;;;;;;12.55;73.53;100359.84;215948;1276;140926;-66
2022/06/18 01:09:03;;;;;;;7.70;7.10;;;;;;;12.51;73.20;100351.62;215469;1276;140247;-66
2022/06/18 01:14:10;;;;;;;;;;;;;;;12.42;73.35;100350.36;216022;1276;151254;-66
2022/06/18 01:19:44;;;;;;;9.90;8.90;;;;;;;12.42;73.55;100353.94;216720;1276;127465;-66
2022/06/18 01:24:50;;;;;;;10.80;9.20;;;;;;;12.52;73.64;100355.35;215069;1277;142313;-66
2022/06/18 01:29:54;;;;;;;11.30;10.10;;;;;;;12.49;73.30;100352.88;213333;1277;142166;-65
2022/06/18 01:35:00;;;;;;;11.60;9.40;;;;;;;12.36;73.42;100344.16;213675;1277;140711;-65
2022/06/18 01:40:08;;;;;;;8.30;7.60;;;;;;;12.36;74.01;100340.46;213422;1276;141144;-66
2022/06/18 01:45:22;;;;;;;10.20;9.20;;;;;;;12.35;73.92;100341.26;213675;1277;140339;-66
2022/06/18 01:50:37;;;;;;;17.70;10.50;;;;;;;12.32;73.62;100336.63;213399;1277;140342;-65
2022/06/18 01:55:52;;;;;;;12.90;10.30;;;;;;;12.26;74.00;100330.27;213639;1277;141623;-64
2022/06/18 02:01:01;;;;;;;9.80;8.10;;;;;;;12.29;74.21;100328.38;213703;1276;156058;-65
2022/06/18 02:06:08;;;;;;;9.40;8.60;;;;;;;12.28;74.25;100327.02;213459;1276;141108;-66
2022/06/18 02:11:14;;;;;;;;;;;;;;;12.28;74.33;100324.07;213187;1277;141897;-65
2022/06/18 02:16:23;;;;;;;13.60;9.00;;;;;;;12.23;74.15;100315.69;213567;1276;774241;-65
2022/06/18 02:21:30;;;;;;;10.00;9.00;;;;;;;12.21;74.27;100311.33;213421;1276;143188;-65
2022/06/18 02:26:38;;;;;;;9.70;8.70;;;;;;;12.20;74.48;100309.09;213418;1276;141497;-66
2022/06/18 02:31:45;;;;;;;14.20;10.20;;;;;;;12.14;74.51;100309.09;213659;1277;141248;-65
2022/06/18 02:36:51;;;;;;;10.00;8.30;;;;;;;12.14;74.36;100305.89;213485;1275;141309;-65
2022/06/18 02:42:05;;;;;;;14.20;10.30;;;;;;;12.12;74.33;100305.71;213395;1277;229459;-65
2022/06/18 02:47:16;;;;;;;13.70;9.80;;;;;;;12.11;74.42;100313.58;213529;1277;141699;-65
2022/06/18 02:52:25;;;;;;;10.20;9.30;;;;;;;12.12;74.87;100309.38;213385;1276;140411;-66
2022/06/18 02:57:29;;;;;;;9.60;8.70;;;;;;;12.13;74.83;100311.00;214390;1276;141054;-66
2022/06/18 03:02:34;;;;;;;15.80;10.80;;;;;;;12.15;74.99;100316.35;215916;1276;142487;-66
2022/06/18 03:07:39;;;;;;;15.90;10.30;;;;;;;12.21;75.15;100319.55;215929;1276;141213;-66
2022/06/18 03:12:44;;;;;;;14.70;10.60;;;;;;;12.27;75.03;100323.95;215915;1277;140690;-68
2022/06/18 03:17:50;;;;;;;11.30;10.20;;;;;;;12.30;74.92;100325.95;216006;1276;141273;-66
2022/06/18 03:22:55;;;;;;;14.20;9.90;;;;;;;12.36;74.96;100323.56;214086;1276;140697;-66
2022/06/18 03:27:59;;;;;;;19.50;11.90;;;;;;;12.45;74.99;100324.81;213207;1276;142119;-66
2022/06/18 03:33:04;;;;;;;10.30;9.30;;;;;;;12.52;74.83;100322.51;213862;1276;141754;-65
2022/06/18 03:38:10;;;;;;;11.10;9.90;;;;;;;12.56;74.69;100322.09;213599;1276;142836;-66
2022/06/18 03:43:16;;;;;;;12.80;8.80;;;;;;;12.64;75.10;100317.58;213829;1276;142387;-65
2022/06/18 03:48:26;;;;;;;10.00;9.10;;;;;;;12.86;75.18;100312.53;213577;1276;141583;-65
2022/06/18 03:53:32;;;;;;;9.20;7.40;;;;;;;13.09;75.25;100306.02;213350;1277;141783;-65
2022/06/18 03:58:37;;;;;;;11.40;8.30;;;;;;;13.48;74.68;100299.19;213717;1276;160993;-67
2022/06/18 04:03:41;;;;;;;9.80;8.50;;;;;;;13.72;74.84;100292.83;213377;1276;142440;-66
2022/06/18 04:08:46;;;;;;;9.80;8.20;;;;;;;14.01;74.27;100291.70;213426;1277;140316;-65
2022/06/18 04:13:51;;;;;;;8.80;7.70;;;;;;;14.20;74.33;100298.32;213664;1277;140194;-64
2022/06/18 04:18:56;;;;;;;7.80;7.10;;;;;;;14.47;74.03;100298.73;213834;1276;140921;-65
2022/06/18 04:24:01;;;;;;;10.10;9.10;;;;;;;14.82;73.86;100296.97;213381;1276;141887;-65
2022/06/18 04:29:06;;;;;;;12.30;7.90;;;;;;;15.24;74.02;100288.46;213855;1276;140483;-64
2022/06/18 04:34:10;;;;;;;9.00;6.80;;;;;;;15.78;73.92;100286.41;213585;1275;143268;-66
2022/06/18 04:39:15;;;;;;;7.90;6.80;;;;;;;18.56;70.38;100281.27;214109;1276;143102;-66
2022/06/18 04:44:20;;;;;;;6.40;5.90;;;;;;;21.33;66.95;100280.07;213659;1277;141277;-65
2022/06/18 04:49:26;;;;;;;8.20;6.70;;;;;;;23.18;63.96;100277.65;213756;1276;140366;-65
2022/06/18 04:54:30;;;;;;;8.10;6.80;;;;;;;23.77;61.88;100276.98;215995;1276;140540;-66
2022/06/18 04:59:38;;;;;;;7.40;5.80;;;;;;;23.11;61.05;100280.64;215842;1276;141419;-67
2022/06/18 05:04:43;;;;;;;7.90;5.50;;;;;;;22.85;60.11;100271.65;215892;1276;140587;-66
2022/06/18 05:09:48;;;;;;;6.10;5.70;;;;;;;24.01;57.96;100270.63;215681;1276;141304;-66
2022/06/18 05:14:51;;;;;;;8.60;5.50;;;;;;;25.31;55.95;100274.11;215861;1276;140610;-66
2022/06/18 05:19:56;;;;;;;7.00;4.80;;;;;;;27.13;53.26;100270.71;214509;1276;140636;-64
2022/06/18 05:25:01;;;;;;;5.20;4.80;;;;;;;29.44;50.51;100274.30;213809;1276;140628;-64
2022/06/18 05:30:07;;;;;;;4.20;3.80;;;;;;;31.25;47.82;100276.88;213829;1276;141647;-63
2022/06/18 05:35:12;;;;;;;6.50;3.60;;;;;;;32.60;46.02;100286.05;214418;1276;140186;-63
2022/06/18 05:40:19;;;;;;;3.90;3.30;;;;;;;34.12;43.22;100289.33;213399;1276;141889;-64
2022/06/18 05:45:25;;;;;;;3.00;2.80;;;;;;;35.26;39.73;100286.05;213291;1276;140690;-64
2022/06/18 05:50:29;;;;;;;3.30;2.30;;;;;;;36.90;38.83;100286.69;213203;1274;140356;-63
2022/06/18 05:55:34;;;;;;;2.50;2.30;;;;;;;38.38;36.67;100297.38;213393;1276;139226;-63
2022/06/18 06:00:39;;;;;;;2.50;2.30;;;;;;;37.09;34.58;100298.73;213033;1276;140260;-65
2022/06/18 06:05:46;;;;;;;2.50;2.10;;;;;;;35.96;34.84;100281.66;213440;1276;140367;-65
2022/06/18 06:16:16;;;;;;;3.10;2.80;;;;;;;34.80;34.86;100268.14;213550;1276;139835;-64
2022/06/18 06:21:21;;;;;;;4.10;3.00;;;;;;;34.03;34.51;100264.59;213626;1276;140307;-65
2022/06/18 06:26:30;;;;;;;3.60;2.10;;;;;;;34.88;34.65;100256.52;213220;1276;139354;-65
2022/06/18 06:31:38;;;;;;;6.40;3.20;;;;;;;35.42;33.43;100248.53;213399;1276;139927;-65
2022/06/18 06:36:42;;;;;;;3.80;2.60;;;;;;;35.76;33.03;100242.86;213622;1277;140184;-66
2022/06/18 06:41:46;;;;;;;2.30;1.90;;;;;;;35.02;32.86;100235.09;215904;1276;140756;-66
2022/06/18 06:46:52;;;;;;;2.70;2.50;;;;;;;34.15;32.66;100233.00;215946;1276;140154;-66
2022/06/18 06:52:01;;;;;;;1.90;1.80;;;;;;;34.15;34.01;100221.61;215789;1276;140711;-66
2022/06/18 06:57:22;;;;;;;3.60;1.90;;;;;;;33.17;34.25;100220.80;215873;1276;140151;-66
2022/06/18 07:02:27;;;;;;;2.80;2.60;;;;;;;31.63;34.13;100221.16;215961;1276;141357;-66
2022/06/18 07:07:32;;;;;;;1.90;1.80;;;;;;;30.83;35.68;100226.55;215995;1276;140182;-66
2022/06/18 07:12:35;;;;;;;2.20;2.00;;;;;;;30.31;36.68;100223.73;215713;1276;140196;-65
2022/06/18 07:17:42;;;;;;;2.00;1.80;;;;;;;29.66;36.77;100220.91;214515;1276;139751;-65
2022/06/18 07:22:50;;;;;;;2.50;2.30;;;;;;;28.79;37.32;100210.56;213668;1277;139715;-65
2022/06/18 07:27:54;;;;;;;3.20;2.40;;;;;;;28.14;38.54;100207.50;213370;1276;140521;-64
2022/06/18 07:33:02;;;;;;;4.00;1.90;;;;;;;27.51;39.31;100203.57;213515;1276;141220;-65
2022/06/18 07:38:07;;;;;;;2.60;2.40;;;;;;;27.17;40.12;100200.98;213298;1274;140636;-65
2022/06/18 07:43:35;;;;;;;2.70;2.10;;;;;;;27.03;40.43;100206.31;213650;1274;139737;-65
2022/06/18 07:48:41;;;;;;;3.00;2.30;;;;;;;26.99;41.23;100212.09;213416;1276;139726;-65
2022/06/18 07:53:45;;;;;;;2.40;2.20;;;;;;;26.91;41.39;100206.47;213204;1276;140302;-64
2022/06/18 07:58:50;;;;;;;2.70;2.50;;;;;;;26.81;41.91;100199.58;213231;1276;140098;-65
2022/06/18 08:03:55;;;;;;;1.90;1.70;;;;;;;26.50;42.04;100196.47;213480;1276;139916;-64
2022/06/18 08:08:59;;;;;;;3.30;1.50;;;;;;;26.30;42.60;100199.23;213600;1276;139731;-64
2022/06/18 08:14:04;;;;;;;4.50;2.50;;;;;;;26.57;42.91;100198.85;213723;1275;141926;-65
2022/06/18 08:19:10;;;;;;;3.00;1.90;;;;;;;26.95;42.49;100197.86;213745;1277;141660;-65
2022/06/18 08:24:24;;;;;;;2.90;2.60;;;;;;;26.97;42.26;100199.58;213668;1275;140466;-64
2022/06/18 08:29:32;;;;;;;1.60;1.60;;;;;;;27.08;42.94;100203.05;213826;1277;140469;-66
2022/06/18 08:34:37;;;;;;;3.70;2.40;;;;;;;27.98;43.38;100204.77;214029;1276;140672;-67
2022/06/18 08:39:41;;;;;;;4.90;2.50;;;;;;;28.09;41.95;100199.10;215985;1276;140144;-66
2022/06/18 08:45:14;;;;;;;2.70;1.90;;;;;;;27.89;41.34;100189.23;216147;1275;139820;-67
2022/06/18 08:51:00;;;;;;;1.90;1.80;;;;;;;27.90;41.95;100184.68;215864;1276;141233;-67
2022/06/18 08:56:18;;;;;;;4.80;1.90;;;;;;;28.37;42.11;100184.64;215963;1276;140821;-66
2022/06/18 09:01:32;;;;;;;1.60;1.50;;;;;;;28.53;41.94;100185.77;215953;1276;140957;-66
2022/06/18 09:07:03;;;;;;;3.10;2.20;;;;;;;29.29;42.22;100185.24;215407;1276;140207;-71
2022/06/18 09:12:19;;;;;;;2.00;1.90;;;;;;;29.41;40.57;100177.21;214078;1276;140990;-65
2022/06/18 09:17:35;;;;;;;2.70;2.30;;;;;;;29.43;40.55;100167.58;213566;1276;140408;-66
2022/06/18 09:22:47;;;;;;;2.50;1.90;;;;;;;29.63;40.40;100156.40;213438;1276;140169;-65
2022/06/18 09:27:57;;;;;;;5.10;2.00;;;;;;;29.69;40.29;100150.73;213535;1276;140155;-65
2022/06/18 09:33:10;;;;;;;2.90;1.90;;;;;;;29.49;39.74;100142.98;213539;1276;150848;-66
2022/06/18 09:38:33;;;;;;;2.40;2.20;;;;;;;29.05;40.00;100146.36;213717;1277;140141;-66
2022/06/18 09:43:45;;;;;;;2.50;1.90;;;;;;;29.32;40.37;100135.41;213806;1274;139895;-66
2022/06/18 09:48:50;;;;;;;3.40;1.80;;;;;;;29.61;39.94;100124.30;213627;1276;141006;-66
2022/06/18 09:53:58;;;;;;;1.70;1.60;;;;;;;29.81;39.15;100121.46;213616;1276;140998;-66
2022/06/18 09:59:33;;;;;;;5.00;1.80;;;;;;;29.64;38.79;100115.11;213029;1276;236641;-65
2022/06/18 10:10:09;;;;;;;1.90;1.70;;;;;;;29.76;39.00;100109.21;213513;1276;141384;-64
2022/06/18 10:15:18;;;;;;;2.40;1.40;;;;;;;29.79;39.40;100098.70;213573;1276;161895;-64
2022/06/18 10:20:46;;;;;;;2.10;1.90;;;;;;;29.82;39.07;100092.44;213439;1276;139245;-64
2022/06/18 10:25:56;;;;;;;2.20;2.00;;;;;;;29.84;38.34;100074.23;213948;1276;139798;-64
2022/06/18 10:31:47;;;;;;;2.30;1.80;;;;;;;29.81;37.99;100069.40;215990;1276;140044;-64
2022/06/18 10:37:17;;;;;;;3.70;1.90;;;;;;;29.67;38.13;100059.32;215394;1276;140643;-67
2022/06/18 10:43:17;;;;;;;1.80;1.70;;;;;;;29.96;37.86;100054.35;216048;1276;140270;-67
2022/06/18 10:48:25;;;;;;;2.50;2.30;;;;;;;30.06;37.62;100046.67;215835;1276;140251;-67
2022/06/18 10:53:35;;;;;;;3.60;1.60;;;;;;;30.05;37.01;100045.02;215199;1277;140435;-67
2022/06/18 10:58:53;;;;;;;1.50;1.40;;;;;;;29.83;36.41;100044.31;215716;1276;140393;-68
2022/06/18 11:04:04;;;;;;;2.10;1.90;;;;;;;29.82;36.69;100031.41;214289;1278;140285;-67
2022/06/18 11:09:19;;;;;;;4.40;1.60;;;;;;;29.83;36.65;100036.85;213582;1276;141547;-65
2022/06/18 11:14:24;;;;;;;3.80;2.30;;;;;;;29.63;35.99;100035.73;213185;1276;139536;-66
2022/06/18 11:19:34;;;;;;;2.90;1.80;;;;;;;29.52;36.58;100025.03;213107;1278;139880;-65
2022/06/18 11:24:40;;;;;;;1.90;1.80;;;;;;;29.54;36.33;100028.29;213148;1277;140385;-65
2022/06/18 11:29:51;;;;;;;2.80;2.10;;;;;;;29.41;36.01;100024.98;213143;1279;142181;-64
2022/06/18 11:35:01;;;;;;;3.30;1.90;;;;;;;29.34;36.17;100022.66;212880;1276;140526;-65
2022/06/18 11:40:06;;;;;;;2.20;2.10;;;;;;;29.31;35.86;100017.19;213331;1276;140131;-66
2022/06/18 11:45:28;;;;;;;5.20;2.60;;;;;;;29.41;36.73;99999.33;213438;1276;140461;-64
2022/06/18 11:50:33;;;;;;;4.00;3.70;;;;;;;29.54;36.76;99989.38;213212;1276;140545;-66
2022/06/18 11:55:43;;;;;;;3.20;3.00;;;;;;;29.54;36.85;99985.66;213514;1276;208699;-66
2022/06/18 12:01:14;;;;;;;3.10;2.90;;;;;;;29.31;36.16;99982.59;213402;1276;140891;-65
2022/06/18 12:06:39;;;;;;;2.80;2.70;;;;;;;29.16;37.51;99971.98;213486;1276;141455;-64
2022/06/18 12:12:02;;;;;;;3.00;2.80;;;;;;;29.27;38.05;99967.88;213292;1276;139728;-65
2022/06/18 12:17:20;;;;;;;2.80;2.60;;;;;;;29.28;37.38;99960.62;213498;1276;230287;-64
2022/06/18 12:22:45;;;;;;;2.70;2.50;;;;;;;29.37;37.33;99960.29;213281;1276;142409;-65
2022/06/18 12:28:03;;;;;;;3.10;2.50;;;;;;;29.43;36.93;99949.23;215389;1276;140092;-64
2022/06/18 12:33:29;;;;;;;6.80;2.80;;;;;;;29.41;36.79;99936.88;215810;1276;139727;-65
2022/06/18 12:38:50;;;;;;;3.40;2.20;;;;;;;29.29;36.19;99926.84;216055;1276;139329;-66
2022/06/18 12:44:06;;;;;;;2.50;1.90;;;;;;;29.37;36.32;99917.78;215970;1277;141604;-66
2022/06/18 12:49:30;;;;;;;3.90;2.20;;;;;;;29.26;35.41;99908.80;216212;1276;141505;-66
2022/06/18 12:54:51;;;;;;;3.80;2.30;;;;;;;29.13;35.91;99906.59;215884;1276;139823;-65
2022/06/18 13:00:03;;;;;;;1.80;1.70;;;;;;;28.94;35.52;99897.95;215340;1276;140006;-67
2022/06/18 13:05:16;;;;;;;8.10;2.50;;;;;;;29.00;36.12;99886.96;214035;1276;139916;-65
2022/06/18 13:10:43;;;;;;;3.50;1.70;;;;;;;29.03;36.06;99877.41;212971;1276;141319;-64
2022/06/18 13:16:04;;;;;;;2.50;1.70;;;;;;;28.83;35.91;99877.13;213602;1276;139591;-65
2022/06/18 13:21:09;;;;;;;2.00;1.80;;;;;;;28.75;36.18;99868.52;213030;1276;140031;-64
2022/06/18 13:31:49;;;;;;;1.80;1.70;;;;;;;28.91;36.50;99850.91;213299;1276;139705;-64
2022/06/18 13:37:22;;;;;;;2.00;1.40;;;;;;;28.79;36.14;99850.44;213197;1276;139797;-65
2022/06/18 13:43:05;;;;;;;1.70;1.60;;;;;;;28.71;36.85;99844.06;213333;1276;140175;-64
2022/06/18 13:48:48;;;;;;;3.30;1.60;;;;;;;28.80;37.11;99840.67;213112;1276;221197;-64
2022/06/18 13:54:13;;;;;;;2.30;1.90;;;;;;;28.78;36.83;99836.39;213354;1276;139610;-64
2022/06/18 13:59:20;;;;;;;9.60;1.80;;;;;;;28.71;36.87;99840.20;213481;1276;139927;-65
2022/06/18 14:04:37;;;;;;;2.00;1.90;;;;;;;28.78;37.07;99835.97;213273;1276;139236;-64
2022/06/18 14:09:55;;;;;;;2.10;1.70;;;;;;;28.77;36.74;99836.05;213436;1276;140066;-65
2022/06/18 14:15:04;;;;;;;3.50;1.80;;;;;;;28.63;36.61;99829.66;213199;1276;484715;-68
2022/06/18 14:20:30;;;;;;;2.10;1.60;;;;;;;28.51;36.70;99826.21;213711;1276;142955;-66
2022/06/18 14:26:03;;;;;;;;;;;;;;;28.55;36.68;99819.80;214008;1276;142170;-67
2022/06/18 14:31:10;;;;;;;2.10;1.80;;;;;;;28.52;37.43;99811.49;216663;1276;127676;-67
2022/06/18 14:36:23;;;;;;;2.20;2.00;;;;;;;28.60;37.25;99810.44;216119;1276;141834;-66
2022/06/18 14:41:35;;;;;;;1.70;1.60;;;;;;;28.55;37.09;99807.57;216035;1276;140467;-67
2022/06/18 14:47:17;;;;;;;3.00;1.80;;;;;;;28.58;37.26;99802.17;215858;1276;140099;-67
2022/06/18 14:52:44;;;;;;;4.30;1.70;;;;;;;28.72;37.66;99793.98;215784;1276;141230;-66
2022/06/18 14:58:17;;;;;;;1.70;1.50;;;;;;;28.75;36.94;99792.48;213758;1276;141235;-65
2022/06/18 15:03:23;;;;;;;1.10;1.00;;;;;;;28.68;36.75;99786.77;213119;1276;141668;-66
2022/06/18 15:08:29;;;;;;;1.60;1.50;;;;;;;28.54;36.55;99783.67;213341;1276;141317;-64
2022/06/18 15:13:38;;;;;;;1.70;1.30;;;;;;;28.37;36.61;99776.90;213628;1276;143108;-65
2022/06/18 15:19:07;;;;;;;1.60;1.40;;;;;;;28.23;36.77;99772.92;213603;1276;143653;-66
2022/06/18 15:24:18;;;;;;;3.30;1.60;;;;;;;28.23;36.85;99765.14;212905;1277;141516;-66
2022/06/18 15:29:27;;;;;;;1.40;1.40;;;;;;;28.17;37.17;99760.81;213316;1276;140635;-65
2022/06/18 15:34:31;;;;;;;1.30;1.20;;;;;;;28.25;37.17;99756.20;213088;1276;139315;-65
2022/06/18 15:39:54;;;;;;;1.20;1.10;;;;;;;28.18;36.74;99749.59;213214;1277;139814;-64
2022/06/18 15:45:02;;;;;;;1.10;1.10;;;;;;;28.07;36.91;99743.80;213398;1276;141389;-65
2022/06/18 15:50:12;;;;;;;0.80;0.80;;;;;;;28.02;36.88;99734.13;213122;1277;140306;-66
2022/06/18 15:55:22;;;;;;;1.30;1.20;;;;;;;28.03;36.90;99724.05;213708;1277;140150;-66
2022/06/18 16:00:38;;;;;;;2.90;1.50;;;;;;;27.94;37.19;99724.89;213374;1277;152874;-65
2022/06/18 16:05:44;;;;;;;1.50;1.40;;;;;;;27.92;37.15;99719.21;213301;1277;139777;-66
2022/06/18 16:10:48;;;;;;;1.40;1.30;;;;;;;27.83;37.01;99718.52;213970;1277;139568;-64
2022/06/18 16:15:57;;;;;;;1.30;1.00;;;;;;;27.74;37.20;99716.10;214103;1277;141295;-66
2022/06/18 16:21:11;;;;;;;3.20;1.10;;;;;;;27.70;37.45;99716.44;215091;1276;140639;-66
2022/06/18 16:26:14;;;;;;;1.90;1.10;;;;;;;27.70;37.09;99712.98;215427;1277;140119;-65
2022/06/18 16:31:18;;;;;;;1.20;1.20;;;;;;;27.71;37.33;99709.98;214276;1277;140810;-65
2022/06/18 16:36:26;;;;;;;1.20;1.10;;;;;;;27.71;37.25;99714.64;215710;1277;140750;-64
2022/06/18 16:41:43;;;;;;;1.20;1.20;;;;;;;27.60;37.06;99706.90;215770;1276;140634;-66
2022/06/18 16:46:48;;;;;;;1.40;1.30;;;;;;;27.52;37.28;99701.83;215842;1277;139711;-65
2022/06/18 16:51:58;;;;;;;5.90;1.50;;;;;;;27.47;37.30;99694.23;215259;1277;141101;-66
2022/06/18 16:57:24;;;;;;;1.50;1.40;;;;;;;27.44;37.22;99686.42;215305;1276;139614;-65
2022/06/18 17:02:30;;;;;;;1.10;1.10;;;;;;;27.36;37.31;99682.91;214453;1276;139297;-66
2022/06/18 17:07:36;;;;;;;1.30;1.30;;;;;;;27.28;37.52;99675.09;213523;1277;139940;-64
2022/06/18 17:12:41;;;;;;;1.30;1.20;;;;;;;27.24;38.17;99670.59;213460;1276;140397;-65
2022/06/18 17:17:46;;;;;;;1.50;1.40;;;;;;;27.15;38.32;99662.29;214970;1276;140237;-63
2022/06/18 17:22:55;;;;;;;3.70;1.30;;;;;;;27.04;38.50;99663.15;214367;1277;139427;-65
2022/06/18 17:33:24;;;;;;;1.70;1.60;;;;;;;26.77;39.17;99657.39;213980;1276;139656;-64
2022/06/18 17:38:30;;;;;;;1.30;1.30;;;;;;;26.62;39.43;99657.52;214490;1277;140354;-64
2022/06/18 17:43:40;;;;;;;3.40;1.70;;;;;;;26.44;39.89;99649.50;214496;1276;139529;-65
2022/06/18 17:48:44;;;;;;;1.80;1.40;;;;;;;26.26;40.11;99654.42;213626;1276;139522;-66
2022/06/18 17:53:51;;;;;;;2.10;2.00;;;;;;;26.07;40.75;99654.25;213539;1277;140618;-65
2022/06/18 17:58:58;;;;;;;3.70;1.80;;;;;;;25.92;41.26;99656.55;214120;1276;140222;-65
2022/06/18 18:04:10;;;;;;;2.30;2.10;;;;;;;25.74;41.48;99654.40;214434;1276;141873;-66
2022/06/18 18:09:14;;;;;;;2.30;2.20;;;;;;;25.55;41.88;99642.23;213636;1277;141406;-65
2022/06/18 18:14:40;;;;;;;2.30;2.10;;;;;;;25.32;42.52;99640.15;215294;1276;140447;-66
2022/06/18 18:19:45;;;;;;;1.90;1.70;;;;;;;25.11;43.20;99641.73;215942;1276;139360;-66
2022/06/18 18:24:51;;;;;;;2.50;1.70;;;;;;;24.91;43.54;99636.52;216026;1276;139702;-66
2022/06/18 18:29:55;;;;;;;3.60;2.10;;;;;;;24.67;43.89;99637.48;215690;1277;139366;-66
2022/06/18 18:34:59;;;;;;;3.00;2.20;;;;;;;24.47;44.27;99634.90;215949;1276;140376;-66
2022/06/18 18:40:05;;;;;;;3.10;2.30;;;;;;;24.26;44.68;99634.61;215728;1276;140372;-66
2022/06/18 18:45:11;;;;;;;2.50;2.30;;;;;;;24.10;44.94;99634.89;215781;1276;139610;-66
2022/06/18 18:50:16;;;;;;;2.30;2.10;;;;;;;23.97;45.50;99636.96;215059;1276;139966;-66
2022/06/18 18:55:20;;;;;;;4.80;2.40;;;;;;;23.83;45.70;99643.00;214295;1277;141731;-66
2022/06/18 19:00:25;;;;;;;2.60;2.40;;;;;;;23.67;45.93;99653.34;214402;1276;141825;-65
2022/06/18 19:05:29;;;;;;;2.70;2.50;;;;;;;23.50;46.22;99650.80;214736;1276;141179;-66
2022/06/18 19:10:35;;;;;;;3.00;2.70;;;;;;;23.32;46.57;99655.23;213305;1276;140873;-65
2022/06/18 19:15:43;;;;;;;4.20;2.70;;;;;;;23.14;46.93;99659.55;214577;1276;141387;-66
2022/06/18 19:20:48;;;;;;;5.50;2.60;;;;;;;23.02;47.00;99662.58;213112;1277;141310;-67
2022/06/18 19:25:54;;;;;;;3.70;2.40;;;;;;;22.93;47.18;99664.55;214719;1276;143068;-65
2022/06/18 19:31:00;;;;;;;8.80;2.40;;;;;;;22.78;47.55;99668.35;213379;1276;140875;-65
2022/06/18 19:36:05;;;;;;;2.50;2.30;;;;;;;22.58;47.99;99674.36;214037;1276;140506;-66
2022/06/18 19:41:11;;;;;;;2.70;2.50;;;;;;;22.38;48.34;99675.58;214342;1276;139648;-66
2022/06/18 19:46:17;;;;;;;5.90;2.50;;;;;;;22.23;48.77;99666.94;213120;1276;140157;-66
2022/06/18 19:51:22;;;;;;;5.10;3.80;;;;;;;22.11;49.24;99669.08;215038;1276;140090;-66
2022/06/18 19:56:26;;;;;;;3.00;2.80;;;;;;;22.00;49.67;99667.09;213957;1276;141387;-65
2022/06/18 20:01:30;;;;;;;3.30;3.00;;;;;;;21.93;50.06;99666.41;215383;1276;140033;-66
2022/06/18 20:06:34;;;;;;;3.40;2.90;;;;;;;21.87;50.38;99658.52;214319;1276;140517;-66
2022/06/18 20:11:40;;;;;;;3.30;3.00;;;;;;;21.81;50.80;99661.59;214381;1276;139772;-66
2022/06/18 20:16:45;;;;;;;4.80;3.40;;;;;;;21.79;51.19;99655.67;214094;1276;141792;-66
2022/06/18 20:21:50;;;;;;;2.90;2.70;;;;;;;21.76;51.57;99656.73;214680;1276;140056;-66
2022/06/18 20:27:00;;;;;;;3.90;2.50;;;;;;;21.71;51.89;99656.86;215770;1276;140605;-67
2022/06/18 20:32:05;;;;;;;3.10;3.00;;;;;;;21.67;52.31;99653.83;215925;1276;140367;-67
2022/06/18 20:37:10;;;;;;;5.50;3.40;;;;;;;21.67;52.56;99650.48;215110;1276;140279;-66
2022/06/18 20:42:16;;;;;;;5.50;3.30;;;;;;;21.68;52.87;99652.77;215030;1276;141843;-67
2022/06/18 20:47:21;;;;;;;5.40;4.50;;;;;;;21.67;53.06;99654.68;214414;1277;141094;-66
2022/06/18 20:52:27;;;;;;;4.10;3.50;;;;;;;21.67;53.28;99647.77;214540;1275;141795;-66
2022/06/18 20:57:31;;;;;;;3.70;3.40;;;;;;;21.67;53.62;99645.75;214020;1277;141505;-66
2022/06/18 21:02:45;;;;;;;3.70;3.40;;;;;;;21.64;53.79;99647.71;214085;1276;140939;-66
2022/06/18 21:07:51;;;;;;;6.70;3.10;;;;;;;21.66;53.94;99648.87;214365;1275;142330;-66
2022/06/18 21:12:57;;;;;;;3.80;3.50;;;;;;;21.64;54.27;99649.66;213321;1277;143850;-66
2022/06/18 21:18:01;;;;;;;3.40;3.10;;;;;;;21.63;54.29;99654.15;213954;1276;141767;-66
2022/06/18 21:23:09;;;;;;;4.80;4.00;;;;;;;21.60;54.48;99652.46;214253;1276;140963;-67
2022/06/18 21:28:16;;;;;;;4.40;3.80;;;;;;;21.57;54.63;99652.28;213166;1277;140246;-66
2022/06/18 21:38:46;;;;;;;6.60;4.20;;;;;;;21.48;55.09;99645.61;213777;1277;140298;-66
2022/06/18 21:43:51;;;;;;;4.70;3.70;;;;;;;21.43;55.36;99643.66;214659;1276;151531;-66
2022/06/18 21:48:56;;;;;;;3.40;3.20;;;;;;;21.38;55.59;99646.06;213362;1276;141392;-66
2022/06/18 21:54:01;;;;;;;5.30;3.70;;;;;;;21.32;55.84;99648.57;214794;1276;140390;-66
2022/06/18 21:59:06;;;;;;;5.10;3.80;;;;;;;21.26;56.03;99647.08;214780;1276;140454;-67
2022/06/18 22:04:11;;;;;;;4.20;3.70;;;;;;;21.21;56.19;99648.80;214804;1276;139603;-66
2022/06/18 22:09:17;;;;;;;4.30;3.60;;;;;;;21.18;56.38;99645.69;215929;1276;139857;-66
2022/06/18 22:19:49;;;;;;;6.40;3.70;;;;;;;21.09;56.72;99645.25;215975;1276;139461;-66
2022/06/18 22:24:55;;;;;;;4.30;3.90;;;;;;;21.05;56.95;99642.34;215996;1275;140063;-66
2022/06/18 22:30:01;;;;;;;4.10;3.80;;;;;;;21.00;57.14;99638.87;215422;1276;140015;-66
2022/06/18 22:35:05;;;;;;;4.20;3.50;;;;;;;20.93;57.32;99639.00;216083;1276;140198;-66
2022/06/18 22:40:11;;;;;;;4.60;4.20;;;;;;;20.88;57.55;99635.81;216030;1276;141455;-67
2022/06/18 22:45:17;;;;;;;3.50;3.30;;;;;;;20.82;57.78;99631.72;214840;1276;140235;-65
2022/06/18 22:50:24;;;;;;;6.50;4.30;;;;;;;20.80;58.04;99629.29;214935;1276;142185;-65
2022/06/18 22:55:29;;;;;;;4.90;3.60;;;;;;;20.75;58.17;99626.55;213340;1277;140002;-66
2022/06/18 23:00:34;;;;;;;4.30;3.90;;;;;;;20.65;58.37;99624.40;213400;1275;139537;-66
2022/06/18 23:05:41;;;;;;;4.50;4.10;;;;;;;20.56;58.80;99620.38;213692;1276;140582;-66
2022/06/18 23:10:46;;;;;;;4.60;4.30;;;;;;;20.49;58.96;99622.10;213741;1276;140534;-66
2022/06/18 23:15:51;;;;;;;4.90;4.10;;;;;;;20.39;59.19;99618.72;214564;1276;140990;-66
2022/06/18 23:20:56;;;;;;;8.90;4.20;;;;;;;20.31;59.49;99622.31;213656;1276;141087;-66
2022/06/18 23:26:01;;;;;;;4.10;3.80;;;;;;;20.26;59.63;99622.58;214831;1276;140164;-67
2022/06/18 23:31:08;;;;;;;4.60;4.30;;;;;;;20.23;59.87;99615.05;213906;1276;139760;-66
2022/06/18 23:36:12;;;;;;;4.90;4.50;;;;;;;20.17;60.00;99609.39;214169;1276;140882;-66
2022/06/18 23:41:17;;;;;;;3.90;3.70;;;;;;;20.12;60.31;99610.11;213705;1276;139854;-66
2022/06/18 23:46:22;;;;;;;6.50;4.40;;;;;;;20.04;60.60;99618.48;213814;1276;238208;-66
2022/06/18 23:51:27;;;;;;;4.50;4.20;;;;;;;19.98;60.65;99614.31;214478;1274;246585;-66
2022/06/18 23:56:32;;;;;;;5.20;3.70;;;;;;;19.96;60.87;99618.46;214174;1275;140292;-66
